sensor_id;sensor_type;location;lat;lon;timestamp;P1;durP1;ratioP1;P2;durP2;ratioP2
45944;SDS011;31655;48.972;10.686;2023-08-24T00:00:53;8.43;;;7.18;;
45944;SDS011;31655;48.972;10.686;2023-08-24T00:03:19;7.82;;;5.68;;
45944;SDS011;31655;48.972;10.686;2023-08-24T00:05:47;9.65;;;7.47;;
45944;SDS011;31655;48.972;10.686;2023-08-24T00:08:12;11.50;;;7.82;;
45944;SDS011;31655;48.972;10.686;2023-08-24T00:10:38;9.73;;;8.70;;
45944;SDS011;31655;48.972;10.686;2023-08-24T00:13:04;9.30;;;8.38;;
45944;SDS011;31655;48.972;10.686;2023-08-24T00:15:30;8.80;;;7.90;;
45944;SDS011;31655;48.972;10.686;2023-08-24T00:17:56;10.10;;;7.22;;
45944;SDS011;31655;48.972;10.686;2023-08-24T00:20:22;9.88;;;7.32;;
45944;SDS011;31655;48.972;10.686;2023-08-24T00:22:48;8.25;;;7.05;;
45944;SDS011;31655;48.972;10.686;2023-08-24T00:25:14;7.85;;;6.47;;
45944;SDS011;31655;48.972;10.686;2023-08-24T00:27:40;8.38;;;6.53;;
45944;SDS011;31655;48.972;10.686;2023-08-24T00:30:07;10.93;;;7.38;;
45944;SDS011;31655;48.972;10.686;2023-08-24T00:32:33;10.65;;;7.13;;
45944;SDS011;31655;48.972;10.686;2023-08-24T00:35:06;10.13;;;6.80;;
45944;SDS011;31655;48.972;10.686;2023-08-24T00:37:34;8.17;;;6.13;;
45944;SDS011;31655;48.972;10.686;2023-08-24T00:40:01;9.35;;;6.82;;
45944;SDS011;31655;48.972;10.686;2023-08-24T00:42:36;10.40;;;6.72;;
45944;SDS011;31655;48.972;10.686;2023-08-24T00:45:06;10.93;;;5.95;;
45944;SDS011;31655;48.972;10.686;2023-08-24T00:47:32;10.38;;;6.22;;
45944;SDS011;31655;48.972;10.686;2023-08-24T00:49:59;7.38;;;5.85;;
45944;SDS011;31655;48.972;10.686;2023-08-24T00:52:25;12.52;;;6.50;;
45944;SDS011;31655;48.972;10.686;2023-08-24T00:54:54;8.30;;;6.50;;
45944;SDS011;31655;48.972;10.686;2023-08-24T00:57:20;7.47;;;5.85;;
45944;SDS011;31655;48.972;10.686;2023-08-24T00:59:46;8.45;;;6.18;;
45944;SDS011;31655;48.972;10.686;2023-08-24T01:02:12;9.05;;;6.53;;
45944;SDS011;31655;48.972;10.686;2023-08-24T01:04:40;8.05;;;6.03;;
45944;SDS011;31655;48.972;10.686;2023-08-24T01:07:06;9.77;;;6.43;;
45944;SDS011;31655;48.972;10.686;2023-08-24T01:09:34;10.10;;;6.07;;
45944;SDS011;31655;48.972;10.686;2023-08-24T01:12:02;12.57;;;5.93;;
45944;SDS011;31655;48.972;10.686;2023-08-24T01:14:39;8.18;;;6.15;;
45944;SDS011;31655;48.972;10.686;2023-08-24T01:17:10;9.82;;;6.25;;
45944;SDS011;31655;48.972;10.686;2023-08-24T01:19:45;6.75;;;5.68;;
45944;SDS011;31655;48.972;10.686;2023-08-24T01:22:18;8.10;;;5.97;;
45944;SDS011;31655;48.972;10.686;2023-08-24T01:25:14;6.40;;;5.80;;
45944;SDS011;31655;48.972;10.686;2023-08-24T01:27:57;8.65;;;5.72;;
45944;SDS011;31655;48.972;10.686;2023-08-24T01:30:25;10.98;;;5.78;;
45944;SDS011;31655;48.972;10.686;2023-08-24T01:32:51;9.50;;;5.05;;
45944;SDS011;31655;48.972;10.686;2023-08-24T01:35:17;10.15;;;6.57;;
45944;SDS011;31655;48.972;10.686;2023-08-24T01:37:43;7.82;;;6.88;;
45944;SDS011;31655;48.972;10.686;2023-08-24T01:40:17;11.45;;;7.85;;
45944;SDS011;31655;48.972;10.686;2023-08-24T01:45:13;8.95;;;6.40;;
45944;SDS011;31655;48.972;10.686;2023-08-24T01:47:41;9.48;;;7.22;;
45944;SDS011;31655;48.972;10.686;2023-08-24T01:50:07;9.60;;;7.28;;
45944;SDS011;31655;48.972;10.686;2023-08-24T01:52:33;15.73;;;8.70;;
45944;SDS011;31655;48.972;10.686;2023-08-24T01:54:59;9.75;;;8.02;;
45944;SDS011;31655;48.972;10.686;2023-08-24T01:57:25;9.88;;;7.75;;
45944;SDS011;31655;48.972;10.686;2023-08-24T01:59:51;8.23;;;7.07;;
45944;SDS011;31655;48.972;10.686;2023-08-24T02:02:17;10.88;;;7.32;;
45944;SDS011;31655;48.972;10.686;2023-08-24T02:04:43;11.50;;;7.30;;
45944;SDS011;31655;48.972;10.686;2023-08-24T02:07:09;13.57;;;8.15;;
45944;SDS011;31655;48.972;10.686;2023-08-24T02:09:35;11.10;;;7.38;;
45944;SDS011;31655;48.972;10.686;2023-08-24T02:12:01;9.80;;;6.25;;
45944;SDS011;31655;48.972;10.686;2023-08-24T02:14:27;9.90;;;5.43;;
45944;SDS011;31655;48.972;10.686;2023-08-24T02:16:53;9.30;;;5.32;;
45944;SDS011;31655;48.972;10.686;2023-08-24T02:19:19;10.85;;;6.57;;
45944;SDS011;31655;48.972;10.686;2023-08-24T02:21:45;12.48;;;5.93;;
45944;SDS011;31655;48.972;10.686;2023-08-24T02:24:11;9.30;;;6.85;;
45944;SDS011;31655;48.972;10.686;2023-08-24T02:26:37;9.95;;;6.57;;
45944;SDS011;31655;48.972;10.686;2023-08-24T02:29:02;10.30;;;6.78;;
45944;SDS011;31655;48.972;10.686;2023-08-24T02:31:28;15.73;;;7.40;;
45944;SDS011;31655;48.972;10.686;2023-08-24T02:33:55;10.50;;;5.75;;
45944;SDS011;31655;48.972;10.686;2023-08-24T02:36:21;7.65;;;5.88;;
45944;SDS011;31655;48.972;10.686;2023-08-24T02:38:47;7.63;;;6.05;;
45944;SDS011;31655;48.972;10.686;2023-08-24T02:41:13;9.48;;;6.53;;
45944;SDS011;31655;48.972;10.686;2023-08-24T02:43:39;8.63;;;5.68;;
45944;SDS011;31655;48.972;10.686;2023-08-24T02:46:07;7.95;;;5.32;;
45944;SDS011;31655;48.972;10.686;2023-08-24T02:48:33;7.30;;;5.45;;
45944;SDS011;31655;48.972;10.686;2023-08-24T02:51:00;8.90;;;5.57;;
45944;SDS011;31655;48.972;10.686;2023-08-24T02:53:28;6.53;;;5.32;;
45944;SDS011;31655;48.972;10.686;2023-08-24T02:55:54;7.38;;;5.72;;
45944;SDS011;31655;48.972;10.686;2023-08-24T02:58:20;11.18;;;6.05;;
45944;SDS011;31655;48.972;10.686;2023-08-24T03:00:46;8.55;;;5.80;;
45944;SDS011;31655;48.972;10.686;2023-08-24T03:03:15;8.50;;;6.18;;
45944;SDS011;31655;48.972;10.686;2023-08-24T03:05:50;8.07;;;5.65;;
45944;SDS011;31655;48.972;10.686;2023-08-24T03:08:20;11.13;;;6.88;;
45944;SDS011;31655;48.972;10.686;2023-08-24T03:10:46;11.27;;;6.07;;
45944;SDS011;31655;48.972;10.686;2023-08-24T03:13:13;6.75;;;5.65;;
45944;SDS011;31655;48.972;10.686;2023-08-24T03:15:38;14.35;;;6.18;;
45944;SDS011;31655;48.972;10.686;2023-08-24T03:18:04;8.70;;;5.28;;
45944;SDS011;31655;48.972;10.686;2023-08-24T03:20:30;6.30;;;4.82;;
45944;SDS011;31655;48.972;10.686;2023-08-24T03:22:57;6.35;;;5.75;;
45944;SDS011;31655;48.972;10.686;2023-08-24T03:25:23;5.97;;;5.10;;
45944;SDS011;31655;48.972;10.686;2023-08-24T03:27:49;8.38;;;5.30;;
45944;SDS011;31655;48.972;10.686;2023-08-24T03:30:15;9.15;;;5.60;;
45944;SDS011;31655;48.972;10.686;2023-08-24T03:32:41;9.55;;;5.40;;
45944;SDS011;31655;48.972;10.686;2023-08-24T03:35:07;7.07;;;5.43;;
45944;SDS011;31655;48.972;10.686;2023-08-24T03:37:33;7.97;;;5.82;;
45944;SDS011;31655;48.972;10.686;2023-08-24T03:39:59;6.45;;;5.10;;
45944;SDS011;31655;48.972;10.686;2023-08-24T03:42:25;6.28;;;5.13;;
45944;SDS011;31655;48.972;10.686;2023-08-24T03:44:51;9.35;;;5.60;;
45944;SDS011;31655;48.972;10.686;2023-08-24T03:47:17;5.28;;;4.45;;
45944;SDS011;31655;48.972;10.686;2023-08-24T03:49:43;7.03;;;4.97;;
45944;SDS011;31655;48.972;10.686;2023-08-24T03:52:09;11.48;;;5.22;;
45944;SDS011;31655;48.972;10.686;2023-08-24T03:54:35;6.07;;;4.70;;
45944;SDS011;31655;48.972;10.686;2023-08-24T03:57:01;6.32;;;5.03;;
45944;SDS011;31655;48.972;10.686;2023-08-24T03:59:27;9.07;;;4.85;;
45944;SDS011;31655;48.972;10.686;2023-08-24T04:01:53;7.07;;;4.18;;
45944;SDS011;31655;48.972;10.686;2023-08-24T04:04:19;11.32;;;5.10;;
45944;SDS011;31655;48.972;10.686;2023-08-24T04:06:45;5.93;;;4.90;;
45944;SDS011;31655;48.972;10.686;2023-08-24T04:09:11;4.90;;;4.47;;
45944;SDS011;31655;48.972;10.686;2023-08-24T04:11:38;5.72;;;4.60;;
45944;SDS011;31655;48.972;10.686;2023-08-24T04:14:04;6.93;;;4.68;;
45944;SDS011;31655;48.972;10.686;2023-08-24T04:16:30;7.10;;;5.53;;
45944;SDS011;31655;48.972;10.686;2023-08-24T04:18:56;6.07;;;4.78;;
45944;SDS011;31655;48.972;10.686;2023-08-24T04:21:22;5.85;;;5.00;;
45944;SDS011;31655;48.972;10.686;2023-08-24T04:23:48;6.38;;;4.63;;
45944;SDS011;31655;48.972;10.686;2023-08-24T04:26:14;5.25;;;4.32;;
45944;SDS011;31655;48.972;10.686;2023-08-24T04:28:39;8.18;;;4.80;;
45944;SDS011;31655;48.972;10.686;2023-08-24T04:31:06;7.80;;;4.80;;
45944;SDS011;31655;48.972;10.686;2023-08-24T04:33:32;7.85;;;4.28;;
45944;SDS011;31655;48.972;10.686;2023-08-24T04:35:58;5.15;;;4.65;;
45944;SDS011;31655;48.972;10.686;2023-08-24T04:38:24;4.55;;;4.07;;
45944;SDS011;31655;48.972;10.686;2023-08-24T04:40:52;4.75;;;3.50;;
45944;SDS011;31655;48.972;10.686;2023-08-24T04:43:19;6.25;;;3.15;;
45944;SDS011;31655;48.972;10.686;2023-08-24T04:45:49;5.68;;;3.90;;
45944;SDS011;31655;48.972;10.686;2023-08-24T04:48:22;7.03;;;3.90;;
45944;SDS011;31655;48.972;10.686;2023-08-24T04:50:49;10.38;;;5.30;;
45944;SDS011;31655;48.972;10.686;2023-08-24T04:53:15;19.05;;;7.90;;
45944;SDS011;31655;48.972;10.686;2023-08-24T04:55:42;16.95;;;8.30;;
45944;SDS011;31655;48.972;10.686;2023-08-24T04:58:08;12.15;;;5.93;;
45944;SDS011;31655;48.972;10.686;2023-08-24T05:00:34;5.82;;;3.40;;
45944;SDS011;31655;48.972;10.686;2023-08-24T05:03:04;9.80;;;3.78;;
45944;SDS011;31655;48.972;10.686;2023-08-24T05:05:30;4.45;;;3.03;;
45944;SDS011;31655;48.972;10.686;2023-08-24T05:07:57;4.95;;;3.13;;
45944;SDS011;31655;48.972;10.686;2023-08-24T05:10:23;6.03;;;3.42;;
45944;SDS011;31655;48.972;10.686;2023-08-24T05:12:49;8.45;;;4.20;;
45944;SDS011;31655;48.972;10.686;2023-08-24T05:15:15;11.27;;;4.55;;
45944;SDS011;31655;48.972;10.686;2023-08-24T05:17:41;4.45;;;3.58;;
45944;SDS011;31655;48.972;10.686;2023-08-24T05:20:07;4.07;;;3.30;;
45944;SDS011;31655;48.972;10.686;2023-08-24T05:22:35;6.10;;;2.97;;
45944;SDS011;31655;48.972;10.686;2023-08-24T05:25:01;4.38;;;3.10;;
45944;SDS011;31655;48.972;10.686;2023-08-24T05:27:27;6.15;;;3.38;;
45944;SDS011;31655;48.972;10.686;2023-08-24T05:29:53;5.05;;;2.38;;
45944;SDS011;31655;48.972;10.686;2023-08-24T05:32:19;3.55;;;2.00;;
45944;SDS011;31655;48.972;10.686;2023-08-24T05:34:45;7.03;;;2.30;;
45944;SDS011;31655;48.972;10.686;2023-08-24T05:37:11;3.58;;;2.10;;
45944;SDS011;31655;48.972;10.686;2023-08-24T05:39:36;11.23;;;3.22;;
45944;SDS011;31655;48.972;10.686;2023-08-24T05:42:03;7.47;;;4.53;;
45944;SDS011;31655;48.972;10.686;2023-08-24T05:44:29;7.18;;;3.90;;
45944;SDS011;31655;48.972;10.686;2023-08-24T05:46:55;4.22;;;2.78;;
45944;SDS011;31655;48.972;10.686;2023-08-24T05:49:21;4.25;;;2.63;;
45944;SDS011;31655;48.972;10.686;2023-08-24T05:51:50;7.10;;;2.65;;
45944;SDS011;31655;48.972;10.686;2023-08-24T05:54:16;4.95;;;2.75;;
45944;SDS011;31655;48.972;10.686;2023-08-24T05:56:45;3.90;;;2.80;;
45944;SDS011;31655;48.972;10.686;2023-08-24T05:59:11;3.83;;;2.80;;
45944;SDS011;31655;48.972;10.686;2023-08-24T06:01:37;4.18;;;2.20;;
45944;SDS011;31655;48.972;10.686;2023-08-24T06:04:10;9.68;;;3.90;;
45944;SDS011;31655;48.972;10.686;2023-08-24T06:06:36;6.05;;;2.90;;
45944;SDS011;31655;48.972;10.686;2023-08-24T06:09:02;8.35;;;2.90;;
45944;SDS011;31655;48.972;10.686;2023-08-24T06:11:32;5.13;;;2.78;;
45944;SDS011;31655;48.972;10.686;2023-08-24T06:13:58;3.92;;;3.00;;
45944;SDS011;31655;48.972;10.686;2023-08-24T06:16:24;5.38;;;2.67;;
45944;SDS011;31655;48.972;10.686;2023-08-24T06:18:50;9.10;;;3.05;;
45944;SDS011;31655;48.972;10.686;2023-08-24T06:21:16;11.07;;;5.03;;
45944;SDS011;31655;48.972;10.686;2023-08-24T06:23:42;11.05;;;4.05;;
45944;SDS011;31655;48.972;10.686;2023-08-24T06:26:09;4.75;;;3.22;;
45944;SDS011;31655;48.972;10.686;2023-08-24T06:28:36;5.47;;;2.83;;
45944;SDS011;31655;48.972;10.686;2023-08-24T06:31:02;6.00;;;2.80;;
45944;SDS011;31655;48.972;10.686;2023-08-24T06:33:28;3.70;;;2.55;;
45944;SDS011;31655;48.972;10.686;2023-08-24T06:35:57;19.10;;;5.07;;
45944;SDS011;31655;48.972;10.686;2023-08-24T06:38:23;15.43;;;4.72;;
45944;SDS011;31655;48.972;10.686;2023-08-24T06:40:49;8.82;;;3.40;;
45944;SDS011;31655;48.972;10.686;2023-08-24T06:43:15;8.23;;;3.20;;
45944;SDS011;31655;48.972;10.686;2023-08-24T06:45:41;8.27;;;2.50;;
45944;SDS011;31655;48.972;10.686;2023-08-24T06:48:06;3.00;;;2.33;;
45944;SDS011;31655;48.972;10.686;2023-08-24T06:50:32;3.03;;;2.38;;
45944;SDS011;31655;48.972;10.686;2023-08-24T06:52:58;5.20;;;1.98;;
45944;SDS011;31655;48.972;10.686;2023-08-24T06:55:24;3.97;;;2.00;;
45944;SDS011;31655;48.972;10.686;2023-08-24T06:57:50;7.68;;;2.30;;
45944;SDS011;31655;48.972;10.686;2023-08-24T07:00:17;5.78;;;2.08;;
45944;SDS011;31655;48.972;10.686;2023-08-24T07:02:44;3.83;;;2.40;;
45944;SDS011;31655;48.972;10.686;2023-08-24T07:05:10;3.05;;;2.05;;
45944;SDS011;31655;48.972;10.686;2023-08-24T07:07:37;3.63;;;1.98;;
45944;SDS011;31655;48.972;10.686;2023-08-24T07:10:03;3.42;;;2.42;;
45944;SDS011;31655;48.972;10.686;2023-08-24T07:12:29;3.30;;;1.80;;
45944;SDS011;31655;48.972;10.686;2023-08-24T07:14:55;2.88;;;1.80;;
45944;SDS011;31655;48.972;10.686;2023-08-24T07:17:21;4.80;;;2.20;;
45944;SDS011;31655;48.972;10.686;2023-08-24T07:19:47;5.65;;;2.22;;
45944;SDS011;31655;48.972;10.686;2023-08-24T07:22:13;3.97;;;2.30;;
45944;SDS011;31655;48.972;10.686;2023-08-24T07:24:39;5.43;;;2.90;;
45944;SDS011;31655;48.972;10.686;2023-08-24T07:27:06;6.47;;;2.50;;
45944;SDS011;31655;48.972;10.686;2023-08-24T07:29:33;3.60;;;2.22;;
45944;SDS011;31655;48.972;10.686;2023-08-24T07:31:59;5.47;;;2.30;;
45944;SDS011;31655;48.972;10.686;2023-08-24T07:34:25;5.40;;;2.85;;
45944;SDS011;31655;48.972;10.686;2023-08-24T07:36:51;4.40;;;2.42;;
45944;SDS011;31655;48.972;10.686;2023-08-24T07:39:18;4.88;;;3.47;;
45944;SDS011;31655;48.972;10.686;2023-08-24T07:41:44;4.85;;;2.67;;
45944;SDS011;31655;48.972;10.686;2023-08-24T07:44:10;4.72;;;2.85;;
45944;SDS011;31655;48.972;10.686;2023-08-24T07:46:38;5.50;;;2.60;;
45944;SDS011;31655;48.972;10.686;2023-08-24T07:49:04;7.38;;;2.60;;
45944;SDS011;31655;48.972;10.686;2023-08-24T07:51:32;3.25;;;2.38;;
45944;SDS011;31655;48.972;10.686;2023-08-24T07:53:58;8.25;;;2.75;;
45944;SDS011;31655;48.972;10.686;2023-08-24T07:56:24;5.18;;;2.33;;
45944;SDS011;31655;48.972;10.686;2023-08-24T07:58:50;4.75;;;2.28;;
45944;SDS011;31655;48.972;10.686;2023-08-24T08:01:16;4.47;;;2.60;;
45944;SDS011;31655;48.972;10.686;2023-08-24T08:03:41;8.75;;;2.83;;
45944;SDS011;31655;48.972;10.686;2023-08-24T08:06:07;6.82;;;2.90;;
45944;SDS011;31655;48.972;10.686;2023-08-24T08:08:33;3.00;;;2.53;;
45944;SDS011;31655;48.972;10.686;2023-08-24T08:10:59;8.18;;;3.22;;
45944;SDS011;31655;48.972;10.686;2023-08-24T08:13:26;11.65;;;3.58;;
45944;SDS011;31655;48.972;10.686;2023-08-24T08:15:52;7.15;;;3.85;;
45944;SDS011;31655;48.972;10.686;2023-08-24T08:18:18;6.45;;;3.88;;
45944;SDS011;31655;48.972;10.686;2023-08-24T08:20:44;4.25;;;3.80;;
45944;SDS011;31655;48.972;10.686;2023-08-24T08:23:10;8.38;;;3.70;;
45944;SDS011;31655;48.972;10.686;2023-08-24T08:25:36;6.60;;;4.35;;
45944;SDS011;31655;48.972;10.686;2023-08-24T08:28:03;10.70;;;4.60;;
45944;SDS011;31655;48.972;10.686;2023-08-24T08:30:29;6.85;;;3.90;;
45944;SDS011;31655;48.972;10.686;2023-08-24T08:32:55;4.97;;;3.20;;
45944;SDS011;31655;48.972;10.686;2023-08-24T08:35:22;5.97;;;3.67;;
45944;SDS011;31655;48.972;10.686;2023-08-24T08:37:47;3.85;;;2.97;;
45944;SDS011;31655;48.972;10.686;2023-08-24T08:40:14;4.05;;;2.90;;
45944;SDS011;31655;48.972;10.686;2023-08-24T08:42:40;3.78;;;2.80;;
45944;SDS011;31655;48.972;10.686;2023-08-24T08:45:10;4.10;;;2.70;;
45944;SDS011;31655;48.972;10.686;2023-08-24T08:47:36;6.53;;;3.40;;
45944;SDS011;31655;48.972;10.686;2023-08-24T08:50:02;5.50;;;3.05;;
45944;SDS011;31655;48.972;10.686;2023-08-24T08:52:29;5.60;;;2.95;;
45944;SDS011;31655;48.972;10.686;2023-08-24T08:54:55;7.85;;;3.08;;
45944;SDS011;31655;48.972;10.686;2023-08-24T08:57:22;6.97;;;3.75;;
45944;SDS011;31655;48.972;10.686;2023-08-24T08:59:50;5.43;;;3.50;;
45944;SDS011;31655;48.972;10.686;2023-08-24T09:02:18;5.93;;;4.22;;
45944;SDS011;31655;48.972;10.686;2023-08-24T09:04:45;6.35;;;3.60;;
45944;SDS011;31655;48.972;10.686;2023-08-24T09:07:12;6.18;;;3.95;;
45944;SDS011;31655;48.972;10.686;2023-08-24T09:09:39;8.95;;;4.15;;
45944;SDS011;31655;48.972;10.686;2023-08-24T09:12:05;8.35;;;4.25;;
45944;SDS011;31655;48.972;10.686;2023-08-24T09:14:31;12.40;;;6.30;;
45944;SDS011;31655;48.972;10.686;2023-08-24T09:16:58;10.18;;;3.80;;
45944;SDS011;31655;48.972;10.686;2023-08-24T09:19:28;4.80;;;3.45;;
45944;SDS011;31655;48.972;10.686;2023-08-24T09:21:58;5.30;;;2.47;;
45944;SDS011;31655;48.972;10.686;2023-08-24T09:24:34;5.07;;;3.00;;
45944;SDS011;31655;48.972;10.686;2023-08-24T09:27:14;9.25;;;3.00;;
45944;SDS011;31655;48.972;10.686;2023-08-24T09:29:41;12.27;;;3.75;;
45944;SDS011;31655;48.972;10.686;2023-08-24T09:32:10;8.13;;;3.97;;
45944;SDS011;31655;48.972;10.686;2023-08-24T09:34:37;10.80;;;3.55;;
45944;SDS011;31655;48.972;10.686;2023-08-24T09:37:02;5.63;;;3.67;;
45944;SDS011;31655;48.972;10.686;2023-08-24T09:39:29;5.57;;;3.25;;
45944;SDS011;31655;48.972;10.686;2023-08-24T09:41:57;7.80;;;2.88;;
45944;SDS011;31655;48.972;10.686;2023-08-24T09:44:28;8.95;;;3.83;;
45944;SDS011;31655;48.972;10.686;2023-08-24T09:46:53;5.60;;;3.35;;
45944;SDS011;31655;48.972;10.686;2023-08-24T09:49:20;7.53;;;3.58;;
45944;SDS011;31655;48.972;10.686;2023-08-24T09:51:46;7.45;;;3.25;;
45944;SDS011;31655;48.972;10.686;2023-08-24T09:54:12;10.38;;;3.72;;
45944;SDS011;31655;48.972;10.686;2023-08-24T09:56:41;5.38;;;3.97;;
45944;SDS011;31655;48.972;10.686;2023-08-24T10:01:37;9.35;;;3.97;;
45944;SDS011;31655;48.972;10.686;2023-08-24T10:04:04;7.50;;;3.95;;
45944;SDS011;31655;48.972;10.686;2023-08-24T10:06:30;10.77;;;3.35;;
45944;SDS011;31655;48.972;10.686;2023-08-24T10:08:58;7.60;;;3.95;;
45944;SDS011;31655;48.972;10.686;2023-08-24T10:11:29;6.60;;;4.07;;
45944;SDS011;31655;48.972;10.686;2023-08-24T10:14:03;7.38;;;3.70;;
45944;SDS011;31655;48.972;10.686;2023-08-24T10:16:33;3.97;;;3.42;;
45944;SDS011;31655;48.972;10.686;2023-08-24T10:19:00;4.95;;;3.40;;
45944;SDS011;31655;48.972;10.686;2023-08-24T10:21:28;5.22;;;3.25;;
45944;SDS011;31655;48.972;10.686;2023-08-24T10:23:54;6.03;;;3.65;;
45944;SDS011;31655;48.972;10.686;2023-08-24T10:26:24;7.25;;;3.42;;
45944;SDS011;31655;48.972;10.686;2023-08-24T10:28:51;7.18;;;3.80;;
45944;SDS011;31655;48.972;10.686;2023-08-24T10:31:17;6.85;;;3.53;;
45944;SDS011;31655;48.972;10.686;2023-08-24T10:33:45;4.05;;;3.42;;
45944;SDS011;31655;48.972;10.686;2023-08-24T10:36:14;5.32;;;3.80;;
45944;SDS011;31655;48.972;10.686;2023-08-24T10:38:42;14.40;;;7.15;;
45944;SDS011;31655;48.972;10.686;2023-08-24T10:41:07;5.85;;;3.97;;
45944;SDS011;31655;48.972;10.686;2023-08-24T10:43:40;5.68;;;3.67;;
45944;SDS011;31655;48.972;10.686;2023-08-24T10:46:12;5.93;;;3.20;;
45944;SDS011;31655;48.972;10.686;2023-08-24T10:54:06;7.93;;;3.58;;
45944;SDS011;31655;48.972;10.686;2023-08-24T10:56:34;6.93;;;4.10;;
45944;SDS011;31655;48.972;10.686;2023-08-24T11:01:39;6.80;;;4.32;;
45944;SDS011;31655;48.972;10.686;2023-08-24T11:04:05;5.03;;;3.47;;
45944;SDS011;31655;48.972;10.686;2023-08-24T11:06:34;6.93;;;3.97;;
45944;SDS011;31655;48.972;10.686;2023-08-24T11:09:15;13.18;;;8.88;;
45944;SDS011;31655;48.972;10.686;2023-08-24T11:11:42;6.00;;;3.70;;
45944;SDS011;31655;48.972;10.686;2023-08-24T11:14:19;10.50;;;4.05;;
45944;SDS011;31655;48.972;10.686;2023-08-24T11:16:51;5.07;;;3.75;;
45944;SDS011;31655;48.972;10.686;2023-08-24T11:19:17;6.28;;;3.70;;
45944;SDS011;31655;48.972;10.686;2023-08-24T11:21:44;7.28;;;4.78;;
45944;SDS011;31655;48.972;10.686;2023-08-24T11:24:15;8.88;;;7.07;;
45944;SDS011;31655;48.972;10.686;2023-08-24T11:26:45;9.30;;;4.65;;
45944;SDS011;31655;48.972;10.686;2023-08-24T11:29:12;10.45;;;5.78;;
45944;SDS011;31655;48.972;10.686;2023-08-24T11:31:38;9.00;;;5.47;;
45944;SDS011;31655;48.972;10.686;2023-08-24T11:34:05;8.38;;;5.85;;
45944;SDS011;31655;48.972;10.686;2023-08-24T11:36:43;10.20;;;6.35;;
45944;SDS011;31655;48.972;10.686;2023-08-24T11:39:21;8.57;;;5.03;;
45944;SDS011;31655;48.972;10.686;2023-08-24T11:41:59;8.32;;;4.70;;
45944;SDS011;31655;48.972;10.686;2023-08-24T11:44:29;7.35;;;4.90;;
45944;SDS011;31655;48.972;10.686;2023-08-24T11:46:56;6.22;;;4.93;;
45944;SDS011;31655;48.972;10.686;2023-08-24T11:49:23;9.00;;;4.80;;
45944;SDS011;31655;48.972;10.686;2023-08-24T11:51:50;9.05;;;6.60;;
45944;SDS011;31655;48.972;10.686;2023-08-24T11:54:16;5.70;;;4.95;;
45944;SDS011;31655;48.972;10.686;2023-08-24T11:56:46;7.70;;;5.07;;
45944;SDS011;31655;48.972;10.686;2023-08-24T11:59:12;9.38;;;5.32;;
45944;SDS011;31655;48.972;10.686;2023-08-24T12:01:39;10.00;;;7.50;;
45944;SDS011;31655;48.972;10.686;2023-08-24T12:04:06;8.50;;;5.93;;
45944;SDS011;31655;48.972;10.686;2023-08-24T12:06:32;8.82;;;4.60;;
45944;SDS011;31655;48.972;10.686;2023-08-24T12:08:58;7.55;;;4.70;;
45944;SDS011;31655;48.972;10.686;2023-08-24T12:11:24;6.78;;;4.60;;
45944;SDS011;31655;48.972;10.686;2023-08-24T12:13:52;6.25;;;4.95;;
45944;SDS011;31655;48.972;10.686;2023-08-24T12:16:19;5.90;;;4.95;;
45944;SDS011;31655;48.972;10.686;2023-08-24T12:18:46;6.97;;;4.75;;
45944;SDS011;31655;48.972;10.686;2023-08-24T12:21:13;7.13;;;4.93;;
45944;SDS011;31655;48.972;10.686;2023-08-24T12:23:39;7.45;;;4.78;;
45944;SDS011;31655;48.972;10.686;2023-08-24T12:26:05;5.57;;;4.95;;
45944;SDS011;31655;48.972;10.686;2023-08-24T12:28:32;7.25;;;4.30;;
45944;SDS011;31655;48.972;10.686;2023-08-24T12:30:59;7.07;;;5.38;;
45944;SDS011;31655;48.972;10.686;2023-08-24T12:33:29;8.45;;;4.65;;
45944;SDS011;31655;48.972;10.686;2023-08-24T12:35:56;6.63;;;5.45;;
45944;SDS011;31655;48.972;10.686;2023-08-24T12:38:23;9.68;;;5.53;;
45944;SDS011;31655;48.972;10.686;2023-08-24T12:40:49;9.77;;;5.15;;
45944;SDS011;31655;48.972;10.686;2023-08-24T12:43:15;8.85;;;5.35;;
45944;SDS011;31655;48.972;10.686;2023-08-24T12:45:42;16.77;;;5.85;;
45944;SDS011;31655;48.972;10.686;2023-08-24T12:48:08;7.13;;;5.07;;
45944;SDS011;31655;48.972;10.686;2023-08-24T12:50:34;8.23;;;5.40;;
45944;SDS011;31655;48.972;10.686;2023-08-24T12:53:00;5.97;;;4.88;;
45944;SDS011;31655;48.972;10.686;2023-08-24T12:55:27;8.20;;;5.00;;
45944;SDS011;31655;48.972;10.686;2023-08-24T12:57:53;9.15;;;5.15;;
45944;SDS011;31655;48.972;10.686;2023-08-24T13:00:19;7.75;;;5.88;;
45944;SDS011;31655;48.972;10.686;2023-08-24T13:02:45;6.88;;;5.30;;
45944;SDS011;31655;48.972;10.686;2023-08-24T13:05:11;13.48;;;5.93;;
45944;SDS011;31655;48.972;10.686;2023-08-24T13:07:37;11.48;;;5.18;;
45944;SDS011;31655;48.972;10.686;2023-08-24T13:10:05;8.65;;;4.97;;
45944;SDS011;31655;48.972;10.686;2023-08-24T13:12:31;4.95;;;4.30;;
45944;SDS011;31655;48.972;10.686;2023-08-24T13:14:58;9.93;;;4.75;;
45944;SDS011;31655;48.972;10.686;2023-08-24T13:17:24;6.97;;;4.97;;
45944;SDS011;31655;48.972;10.686;2023-08-24T13:19:49;7.13;;;4.60;;
45944;SDS011;31655;48.972;10.686;2023-08-24T13:22:15;10.43;;;5.22;;
45944;SDS011;31655;48.972;10.686;2023-08-24T13:24:47;12.90;;;6.68;;
45944;SDS011;31655;48.972;10.686;2023-08-24T13:27:18;11.50;;;5.35;;
45944;SDS011;31655;48.972;10.686;2023-08-24T13:29:45;7.18;;;4.68;;
45944;SDS011;31655;48.972;10.686;2023-08-24T13:32:11;7.88;;;5.10;;
45944;SDS011;31655;48.972;10.686;2023-08-24T13:34:37;6.95;;;4.80;;
45944;SDS011;31655;48.972;10.686;2023-08-24T13:37:03;6.95;;;4.82;;
45944;SDS011;31655;48.972;10.686;2023-08-24T13:39:29;10.57;;;5.30;;
45944;SDS011;31655;48.972;10.686;2023-08-24T13:41:57;9.73;;;4.72;;
45944;SDS011;31655;48.972;10.686;2023-08-24T13:44:23;12.98;;;4.50;;
45944;SDS011;31655;48.972;10.686;2023-08-24T13:46:49;11.73;;;4.93;;
45944;SDS011;31655;48.972;10.686;2023-08-24T13:49:16;9.40;;;4.18;;
45944;SDS011;31655;48.972;10.686;2023-08-24T13:51:43;6.13;;;3.92;;
45944;SDS011;31655;48.972;10.686;2023-08-24T13:54:13;13.00;;;5.18;;
45944;SDS011;31655;48.972;10.686;2023-08-24T13:56:40;9.30;;;4.15;;
45944;SDS011;31655;48.972;10.686;2023-08-24T13:59:06;8.43;;;4.82;;
45944;SDS011;31655;48.972;10.686;2023-08-24T14:01:32;7.85;;;4.38;;
45944;SDS011;31655;48.972;10.686;2023-08-24T14:03:58;12.85;;;4.90;;
45944;SDS011;31655;48.972;10.686;2023-08-24T14:06:24;8.20;;;4.07;;
45944;SDS011;31655;48.972;10.686;2023-08-24T14:08:50;9.88;;;5.93;;
45944;SDS011;31655;48.972;10.686;2023-08-24T14:11:16;15.52;;;5.38;;
45944;SDS011;31655;48.972;10.686;2023-08-24T14:13:42;7.50;;;4.50;;
45944;SDS011;31655;48.972;10.686;2023-08-24T14:16:08;8.00;;;4.90;;
45944;SDS011;31655;48.972;10.686;2023-08-24T14:18:34;8.40;;;4.13;;
45944;SDS011;31655;48.972;10.686;2023-08-24T14:21:01;13.00;;;4.80;;
45944;SDS011;31655;48.972;10.686;2023-08-24T14:23:27;7.68;;;4.85;;
45944;SDS011;31655;48.972;10.686;2023-08-24T14:25:53;15.65;;;4.90;;
45944;SDS011;31655;48.972;10.686;2023-08-24T14:28:21;11.45;;;4.57;;
45944;SDS011;31655;48.972;10.686;2023-08-24T14:30:48;8.43;;;4.40;;
45944;SDS011;31655;48.972;10.686;2023-08-24T14:33:17;9.57;;;4.60;;
45944;SDS011;31655;48.972;10.686;2023-08-24T14:35:53;21.52;;;5.10;;
45944;SDS011;31655;48.972;10.686;2023-08-24T14:38:18;9.65;;;4.70;;
45944;SDS011;31655;48.972;10.686;2023-08-24T14:40:44;9.00;;;4.28;;
45944;SDS011;31655;48.972;10.686;2023-08-24T14:43:10;9.23;;;3.80;;